Time;durP1;ratioP1;P1;durP2;ratioP2;P2;SDS_P1;SDS_P2;PMS_P1;PMS_P2;Temp;Humidity;BMP_temperature;BMP_pressure;BME280_temperature;BME280_humidity;BME280_pressure;Samples;Min_cycle;Max_cycle;Signal;HPM_P1;HPM_P2
2023/05/05 00:02:14;;;;;;;2.88;1.65;;;14.10;76.10;;;;;;4925285;29;20028;-87
2023/05/05 00:04:39;;;;;;;2.30;1.67;;;14.10;76.20;;;;;;4924526;29;20164;-87
2023/05/05 00:07:04;;;;;;;2.00;1.50;;;14.10;76.10;;;;;;4941535;29;20042;-87
2023/05/05 00:09:30;;;;;;;2.88;1.77;;;14.10;76.20;;;;;;4924838;29;20034;-87
2023/05/05 00:11:55;;;;;;;1.83;1.52;;;14.10;76.20;;;;;;4924257;29;20135;-86
2023/05/05 00:14:21;;;;;;;2.70;1.58;;;14.10;76.10;;;;;;4923959;29;20020;-87
2023/05/05 00:16:46;;;;;;;2.40;1.55;;;14.10;76.10;;;;;;4940774;29;20036;-87
2023/05/05 00:19:12;;;;;;;2.38;1.60;;;14.10;76.20;;;;;;4941212;29;20031;-87
2023/05/05 00:21:37;;;;;;;1.83;1.48;;;14.10;76.10;;;;;;4923483;29;20039;-87
2023/05/05 00:24:03;;;;;;;2.63;1.63;;;14.10;76.20;;;;;;4923325;29;20027;-87
2023/05/05 00:26:29;;;;;;;2.80;1.70;;;14.10;76.20;;;;;;4940138;29;20035;-87
2023/05/05 00:28:54;;;;;;;2.60;1.75;;;14.10;76.20;;;;;;4922917;29;20099;-86
2023/05/05 00:31:20;;;;;;;3.35;1.70;;;14.10;76.10;;;;;;4922628;29;20076;-87
2023/05/05 00:33:45;;;;;;;3.25;1.70;;;14.10;76.10;;;;;;4922985;29;20038;-87
2023/05/05 00:36:11;;;;;;;2.60;1.75;;;14.10;76.20;;;;;;4940154;29;20102;-87
2023/05/05 00:38:37;;;;;;;2.95;1.73;;;14.10;76.20;;;;;;4923110;29;20533;-87
2023/05/05 00:41:02;;;;;;;2.40;1.42;;;14.10;76.20;;;;;;4922746;29;20028;-87
2023/05/05 00:43:28;;;;;;;3.17;1.80;;;14.10;76.20;;;;;;4938856;29;20063;-87
2023/05/05 00:46:00;;;;;;;2.80;1.80;;;14.10;76.20;;;;;;4938679;29;20087;-87
2023/05/05 00:48:30;;;;;;;3.25;1.85;;;14.10;76.20;;;;;;4919126;29;20560;-87
2023/05/05 00:50:57;;;;;;;1.95;1.42;;;14.10;76.20;;;;;;4938081;29;20526;-87
2023/05/05 00:53:23;;;;;;;2.78;1.70;;;14.10;76.20;;;;;;4921321;29;20023;-87
2023/05/05 00:55:50;;;;;;;3.65;1.98;;;14.10;76.20;;;;;;4921300;29;20090;-87
2023/05/05 00:58:16;;;;;;;3.15;1.77;;;14.10;76.20;;;;;;4920847;29;20035;-87
2023/05/05 01:00:41;;;;;;;3.17;1.70;;;14.10;76.20;;;;;;4920482;29;20099;-87
2023/05/05 01:03:07;;;;;;;2.85;1.75;;;14.10;76.20;;;;;;4935246;23;20094;-81
2023/05/05 01:05:48;;;;;;;2.92;1.70;;;14.10;76.20;;;;;;4918362;29;20031;-81
2023/05/05 01:08:45;;;;;;;3.30;1.83;;;14.10;76.20;;;;;;4935479;29;20036;-81
2023/05/05 01:11:23;;;;;;;3.00;1.70;;;14.10;76.20;;;;;;4918114;29;20413;-81
2023/05/05 01:14:10;;;;;;;2.85;1.77;;;14.10;76.20;;;;;;4918176;29;20508;-81
2023/05/05 01:16:37;;;;;;;2.97;1.70;;;14.10;76.20;;;;;;4918173;29;20075;-81
2023/05/05 01:19:28;;;;;;;2.67;1.60;;;14.10;76.30;;;;;;4935254;29;20038;-82
2023/05/05 01:21:59;;;;;;;2.88;1.63;;;14.10;76.20;;;;;;4935059;29;20067;-83
2023/05/05 01:24:43;;;;;;;4.00;1.88;;;14.10;76.30;;;;;;4918203;29;20052;-83
2023/05/05 01:27:47;;;;;;;2.55;1.73;;;14.10;76.30;;;;;;4935442;29;20027;-82
2023/05/05 01:30:30;;;;;;;2.40;1.60;;;14.10;76.30;;;;;;4918082;29;20027;-80
2023/05/05 01:33:22;;;;;;;2.97;1.77;;;14.10;76.30;;;;;;4918147;29;20027;-80
2023/05/05 01:35:53;;;;;;;2.25;1.60;;;14.10;76.20;;;;;;4918237;29;20028;-81
2023/05/05 01:38:25;;;;;;;;;;;14.10;76.30;;;;;;4918551;29;20066;-81
2023/05/05 01:41:14;;;;;;;3.92;1.67;;;14.10;76.30;;;;;;4917885;29;19917;-81
2023/05/05 01:43:44;;;;;;;2.47;1.80;;;14.10;76.20;;;;;;4917967;29;20027;-80
2023/05/05 01:46:12;;;;;;;2.80;1.80;;;14.10;76.30;;;;;;4918041;29;20040;-81
2023/05/05 01:48:38;;;;;;;2.80;1.70;;;14.10;76.30;;;;;;4918149;29;20028;-81
2023/05/05 01:51:05;;;;;;;2.55;1.67;;;14.10;76.30;;;;;;4934825;29;20122;-81
2023/05/05 01:53:32;;;;;;;3.10;1.80;;;14.10;76.20;;;;;;4917871;29;20032;-83
2023/05/05 01:55:58;;;;;;;3.67;1.90;;;14.10;76.20;;;;;;4919487;29;20028;-81
2023/05/05 01:58:25;;;;;;;2.63;1.63;;;14.10;76.20;;;;;;4921351;29;20053;-81
2023/05/05 02:00:53;;;;;;;3.28;2.17;;;14.10;76.20;;;;;;4921458;29;20027;-81
2023/05/05 02:03:20;;;;;;;2.70;1.90;;;14.10;76.30;;;;;;4936679;29;20036;-81
2023/05/05 02:05:47;;;;;;;3.50;1.70;;;14.10;76.40;;;;;;4928733;29;20042;-81
2023/05/05 02:08:14;;;;;;;4.05;1.88;;;14.10;76.40;;;;;;4957741;29;20031;-81
2023/05/05 02:10:39;;;;;;;3.85;2.00;;;14.10;76.30;;;;;;4957501;29;20099;-82
2023/05/05 02:13:06;;;;;;;2.65;1.80;;;14.10;76.30;;;;;;4940331;29;20488;-82
2023/05/05 02:15:34;;;;;;;3.05;1.83;;;14.10;76.30;;;;;;4940478;29;20023;-81
2023/05/05 02:18:00;;;;;;;2.85;1.75;;;14.10;76.30;;;;;;4957578;29;20055;-81
2023/05/05 02:20:29;;;;;;;3.95;2.00;;;14.10;76.30;;;;;;4940020;29;20531;-81
2023/05/05 02:22:55;;;;;;;3.00;2.00;;;14.10;76.30;;;;;;4940177;29;20027;-81
2023/05/05 02:25:22;;;;;;;2.60;1.80;;;14.10;76.30;;;;;;4940260;29;20038;-82
2023/05/05 02:27:48;;;;;;;2.90;1.80;;;14.10;76.30;;;;;;4940203;29;20059;-81
2023/05/05 02:30:18;;;;;;;3.30;1.80;;;14.10;76.30;;;;;;4939835;29;20400;-79
2023/05/05 02:32:49;;;;;;;3.40;1.98;;;14.10;76.30;;;;;;4940047;29;20099;-81
2023/05/05 02:35:19;;;;;;;3.70;2.00;;;14.10;76.30;;;;;;4940108;29;20031;-81
2023/05/05 02:37:54;;;;;;;3.13;2.00;;;14.10;76.30;;;;;;4957284;29;20111;-81
2023/05/05 02:40:25;;;;;;;4.03;2.17;;;14.10;76.30;;;;;;4939761;29;20027;-79
2023/05/05 02:42:53;;;;;;;3.17;1.92;;;14.10;76.40;;;;;;4939985;29;20023;-81
2023/05/05 02:45:21;;;;;;;3.55;1.80;;;14.10;76.30;;;;;;4939840;29;20027;-82
2023/05/05 02:47:46;;;;;;;3.13;1.80;;;14.10;76.30;;;;;;4956986;29;20472;-81
2023/05/05 02:50:12;;;;;;;2.97;1.98;;;14.10;76.40;;;;;;4956794;29;20031;-82
2023/05/05 02:52:37;;;;;;;2.53;1.75;;;14.10;76.40;;;;;;4939850;29;20153;-81
2023/05/05 02:55:04;;;;;;;3.50;2.15;;;14.10;76.40;;;;;;4939785;29;20023;-82
2023/05/05 02:57:38;;;;;;;3.47;1.95;;;14.10;76.40;;;;;;4939625;29;20396;-80
2023/05/05 03:00:11;;;;;;;2.92;1.88;;;14.10;76.40;;;;;;4939228;29;20027;-85
2023/05/05 03:02:50;;;;;;;2.90;1.77;;;14.10;76.40;;;;;;4939661;29;20080;-82
2023/05/05 03:05:21;;;;;;;4.32;1.98;;;14.00;76.30;;;;;;4956600;29;20035;-81
2023/05/05 03:08:02;;;;;;;2.72;1.80;;;14.10;76.40;;;;;;4955867;28;20024;-80
2023/05/05 03:10:32;;;;;;;3.17;2.00;;;14.10;76.40;;;;;;4939258;29;20492;-80
2023/05/05 03:13:00;;;;;;;3.47;1.98;;;14.10;76.40;;;;;;4939355;29;20035;-81
2023/05/05 03:15:30;;;;;;;3.70;2.00;;;14.10;76.40;;;;;;4939479;29;20596;-81
2023/05/05 03:17:57;;;;;;;3.43;1.97;;;14.10;76.40;;;;;;4939327;29;20484;-81
2023/05/05 03:20:24;;;;;;;3.50;2.10;;;14.10;76.40;;;;;;4939009;29;20290;-82
2023/05/05 03:22:50;;;;;;;3.15;1.70;;;14.10;76.40;;;;;;4956350;29;20024;-82
2023/05/05 03:25:16;;;;;;;3.10;1.80;;;14.10;76.40;;;;;;4939177;29;20030;-81
2023/05/05 03:27:41;;;;;;;3.20;1.80;;;14.10;76.50;;;;;;4939174;29;20385;-82
2023/05/05 03:30:07;;;;;;;3.13;1.90;;;14.10;76.60;;;;;;4938892;29;20795;-81
2023/05/05 03:32:33;;;;;;;3.17;2.10;;;14.10;76.60;;;;;;4939005;29;20556;-81
2023/05/05 03:34:58;;;;;;;3.65;2.05;;;14.10;76.60;;;;;;4938874;29;20063;-82
2023/05/05 03:37:24;;;;;;;3.85;2.03;;;14.10;76.60;;;;;;4956216;29;20031;-82
2023/05/05 03:39:49;;;;;;;3.03;1.90;;;14.00;76.50;;;;;;4938911;29;20019;-81
2023/05/05 03:42:15;;;;;;;2.88;1.92;;;14.10;76.50;;;;;;4938612;29;20031;-82
2023/05/05 03:44:40;;;;;;;3.13;2.00;;;14.10;76.50;;;;;;4938721;29;20039;-81
2023/05/05 03:47:06;;;;;;;3.25;2.00;;;14.10;76.50;;;;;;4955864;29;20090;-82
2023/05/05 03:49:31;;;;;;;3.30;1.98;;;14.10;76.50;;;;;;4956172;29;20366;-81
2023/05/05 03:51:57;;;;;;;3.20;1.95;;;14.10;76.50;;;;;;4938596;29;20027;-81
2023/05/05 03:54:22;;;;;;;2.97;2.10;;;14.10;76.50;;;;;;4938513;29;20261;-82
2023/05/05 03:56:48;;;;;;;3.53;2.20;;;14.10;76.50;;;;;;4938640;29;20031;-82
2023/05/05 03:59:13;;;;;;;3.10;1.90;;;14.10;76.70;;;;;;4938463;29;20035;-82
2023/05/05 04:01:39;;;;;;;3.35;2.03;;;14.10;76.70;;;;;;4938410;29;20171;-82
2023/05/05 04:04:04;;;;;;;2.95;1.90;;;14.10;76.70;;;;;;4929945;29;20500;-82
2023/05/05 04:06:30;;;;;;;3.58;2.10;;;14.10;76.70;;;;;;4919281;29;20078;-81
2023/05/05 04:08:56;;;;;;;3.38;2.10;;;14.10;76.60;;;;;;4919242;29;20028;-82
2023/05/05 04:11:21;;;;;;;3.25;2.03;;;14.10;76.60;;;;;;4936057;29;20039;-81
2023/05/05 04:13:48;;;;;;;3.42;2.17;;;14.00;76.50;;;;;;4919260;29;20027;-81
2023/05/05 04:16:14;;;;;;;3.40;2.03;;;14.10;76.60;;;;;;4939129;29;20047;-81
2023/05/05 04:18:40;;;;;;;3.28;2.08;;;14.10;76.60;;;;;;4918918;29;20028;-82
2023/05/05 04:21:05;;;;;;;3.70;2.10;;;14.10;76.60;;;;;;4919008;29;20028;-81
2023/05/05 04:23:31;;;;;;;2.70;1.90;;;14.10;76.50;;;;;;4918970;29;20059;-81
2023/05/05 04:25:56;;;;;;;2.50;1.75;;;14.10;76.50;;;;;;4918962;29;20122;-82
2023/05/05 04:28:21;;;;;;;3.50;2.13;;;14.00;76.50;;;;;;4918973;29;20374;-82
2023/05/05 04:30:47;;;;;;;3.63;2.10;;;14.10;76.50;;;;;;4924585;29;20078;-81
2023/05/05 04:33:12;;;;;;;3.28;2.10;;;14.10;76.50;;;;;;4937088;29;20768;-80
2023/05/05 04:35:38;;;;;;;3.17;2.00;;;14.00;76.50;;;;;;4934626;29;20063;-82
2023/05/05 04:38:03;;;;;;;4.03;2.28;;;14.10;76.50;;;;;;4928048;29;20032;-80
2023/05/05 04:40:29;;;;;;;3.35;2.05;;;14.10;76.50;;;;;;4915963;29;20169;-81
2023/05/05 04:42:54;;;;;;;3.30;1.95;;;14.10;76.50;;;;;;4916114;29;20024;-81
2023/05/05 04:45:20;;;;;;;2.70;1.80;;;14.10;76.50;;;;;;4916124;29;20043;-82
2023/05/05 04:47:45;;;;;;;2.50;1.80;;;14.10;76.50;;;;;;4916262;29;20548;-81
2023/05/05 04:50:11;;;;;;;3.72;2.00;;;14.10;76.50;;;;;;4915877;29;20755;-80
2023/05/05 04:52:36;;;;;;;3.40;2.10;;;14.10;76.50;;;;;;4915993;29;20031;-80
2023/05/05 04:55:03;;;;;;;3.28;1.98;;;14.10;76.50;;;;;;4915775;29;20028;-80
2023/05/05 04:57:29;;;;;;;3.60;1.98;;;14.10;76.50;;;;;;4915880;29;20035;-80
2023/05/05 05:05:52;;;;;;;3.25;2.00;;;14.10;76.40;;;;;;4959536;23;20390;-90
2023/05/05 05:11:50;;;;;;;3.40;2.10;;;14.00;76.30;;;;;;4901763;29;20059;-89
2023/05/05 05:14:27;;;;;;;2.75;1.98;;;14.10;76.40;;;;;;4895175;29;20492;-87
2023/05/05 05:20:47;;;;;;;3.55;2.10;;;14.10;76.40;;;;;;4801749;29;20126;-89
2023/05/05 05:23:12;;;;;;;2.83;1.90;;;14.00;76.30;;;;;;4800849;29;20503;-90
2023/05/05 05:25:38;;;;;;;3.13;1.98;;;14.40;76.50;;;;;;4835618;29;20077;-85
2023/05/05 05:28:03;;;;;;;3.20;2.00;;;14.30;76.40;;;;;;4905568;29;20047;-82
2023/05/05 05:30:29;;;;;;;3.88;2.38;;;14.20;76.40;;;;;;4934783;29;20395;-89
2023/05/05 05:32:57;;;;;;;3.58;2.20;;;14.10;76.30;;;;;;4936693;29;20059;-86
2023/05/05 05:35:23;;;;;;;3.65;2.20;;;14.10;76.40;;;;;;4939346;28;20032;-84
2023/05/05 05:37:49;;;;;;;3.38;1.90;;;14.10;76.40;;;;;;4940046;29;20650;-83
2023/05/05 05:40:15;;;;;;;4.03;2.22;;;14.10;76.40;;;;;;4926406;29;20067;-82
2023/05/05 05:42:41;;;;;;;3.05;1.85;;;14.10;76.50;;;;;;4953254;29;20051;-83
2023/05/05 05:45:07;;;;;;;3.25;2.03;;;14.10;76.40;;;;;;4932137;29;20028;-82
2023/05/05 05:47:32;;;;;;;4.15;2.10;;;14.10;76.50;;;;;;4936535;29;20055;-83
2023/05/05 05:49:58;;;;;;;3.35;2.10;;;14.10;77.00;;;;;;4931594;29;20066;-82
2023/05/05 05:52:23;;;;;;;2.78;1.90;;;14.10;76.50;;;;;;4938290;29;20046;-82
2023/05/05 05:54:49;;;;;;;3.58;2.28;;;14.10;76.60;;;;;;4937200;29;20059;-83
2023/05/05 05:57:14;;;;;;;4.22;2.53;;;14.10;76.50;;;;;;4938647;29;20032;-82
2023/05/05 05:59:40;;;;;;;3.65;2.20;;;14.10;76.50;;;;;;4955519;29;20118;-83
2023/05/05 06:02:06;;;;;;;3.90;2.13;;;14.10;76.40;;;;;;4938347;29;20054;-84
2023/05/05 06:04:32;;;;;;;3.35;2.00;;;14.10;76.50;;;;;;4935969;29;20492;-83
2023/05/05 06:06:57;;;;;;;4.05;2.22;;;14.10;76.50;;;;;;4931899;29;20057;-82
2023/05/05 06:09:24;;;;;;;3.92;2.08;;;14.10;76.50;;;;;;4951976;29;20031;-83
2023/05/05 06:11:49;;;;;;;3.08;2.10;;;14.10;76.50;;;;;;4938124;29;20042;-83
2023/05/05 06:14:15;;;;;;;3.72;2.20;;;14.10;76.50;;;;;;4938663;29;20035;-84
2023/05/05 06:16:41;;;;;;;3.78;2.20;;;14.10;76.50;;;;;;4952533;28;20396;-84
2023/05/05 06:19:09;;;;;;;3.15;2.17;;;14.10;76.50;;;;;;4930256;29;20035;-83
2023/05/05 06:21:35;;;;;;;3.53;2.15;;;14.10;76.50;;;;;;4919042;29;20901;-84
2023/05/05 06:24:01;;;;;;;3.95;2.42;;;14.10;76.50;;;;;;4921949;29;20070;-83
2023/05/05 06:26:26;;;;;;;3.17;1.92;;;14.00;76.40;;;;;;4930653;29;20032;-83
2023/05/05 06:28:52;;;;;;;3.67;2.10;;;14.10;76.50;;;;;;4939741;29;20024;-83
2023/05/05 06:31:17;;;;;;;3.47;1.95;;;14.10;76.60;;;;;;4942448;29;20066;-85
2023/05/05 06:33:43;;;;;;;3.80;2.30;;;14.10;76.60;;;;;;4941758;28;20046;-85
2023/05/05 06:36:08;;;;;;;3.63;2.33;;;14.10;76.60;;;;;;4939717;29;20029;-85
2023/05/05 06:38:34;;;;;;;3.67;2.28;;;14.10;76.60;;;;;;4940812;29;20031;-85
2023/05/05 06:40:59;;;;;;;3.50;2.00;;;14.10;76.70;;;;;;4932995;29;20042;-83
2023/05/05 06:43:25;;;;;;;3.55;2.20;;;14.00;76.50;;;;;;4928519;29;20395;-81
2023/05/05 06:45:51;;;;;;;3.22;1.90;;;14.10;76.70;;;;;;4939260;29;20035;-82
2023/05/05 06:48:17;;;;;;;4.20;2.50;;;14.00;76.60;;;;;;4936518;29;20050;-82
2023/05/05 06:50:42;;;;;;;3.97;2.60;;;14.10;76.70;;;;;;4955105;28;20051;-81
2023/05/05 06:53:08;;;;;;;3.53;1.95;;;14.10;76.60;;;;;;4955305;29;20683;-83
2023/05/05 06:55:34;;;;;;;3.42;2.20;;;14.10;76.70;;;;;;4937132;29;20043;-82
2023/05/05 06:57:59;;;;;;;3.45;2.22;;;14.20;76.70;;;;;;4938235;29;20034;-83
2023/05/05 07:00:25;;;;;;;3.78;2.40;;;14.30;76.70;;;;;;4958380;28;20099;-83
2023/05/05 07:02:50;;;;;;;3.47;2.22;;;14.10;76.70;;;;;;4940435;29;20034;-83
2023/05/05 07:05:16;;;;;;;3.55;2.00;;;14.10;76.70;;;;;;4939493;29;20027;-82
2023/05/05 07:07:55;;;;;;;2.88;2.00;;;14.10;76.70;;;;;;4956381;29;20137;-81
2023/05/05 07:10:21;;;;;;;3.53;2.17;;;14.10;76.70;;;;;;4957977;29;20019;-82
2023/05/05 07:12:47;;;;;;;3.33;2.00;;;14.10;76.70;;;;;;4956399;29;20023;-82
2023/05/05 07:15:13;;;;;;;3.42;2.05;;;14.10;76.70;;;;;;4928290;29;20448;-81
2023/05/05 07:17:39;;;;;;;3.90;2.58;;;14.10;76.70;;;;;;4929022;29;20115;-82
2023/05/05 07:20:05;;;;;;;3.83;2.30;;;14.10;76.70;;;;;;4936597;29;20027;-84
2023/05/05 07:22:31;;;;;;;3.88;2.20;;;14.10;76.70;;;;;;4947224;29;20395;-83
2023/05/05 07:24:56;;;;;;;3.50;2.20;;;14.10;76.70;;;;;;4951052;28;20028;-83
2023/05/05 07:27:22;;;;;;;3.95;2.20;;;14.10;76.70;;;;;;4931337;29;20102;-83
2023/05/05 07:29:47;;;;;;;3.67;2.15;;;14.10;76.60;;;;;;4921214;29;20019;-82
2023/05/05 07:32:13;;;;;;;3.85;2.40;;;14.10;76.70;;;;;;4937300;29;20035;-83
2023/05/05 07:34:39;;;;;;;2.97;2.00;;;14.10;76.70;;;;;;4942407;29;20122;-83
2023/05/05 07:37:05;;;;;;;3.40;2.00;;;14.10;76.60;;;;;;4956909;29;20042;-83
2023/05/05 07:39:31;;;;;;;4.35;2.30;;;14.20;76.60;;;;;;4926389;29;20117;-82
2023/05/05 07:41:56;;;;;;;3.15;2.13;;;14.20;76.60;;;;;;4936638;29;20043;-82
2023/05/05 07:44:22;;;;;;;3.40;2.13;;;14.20;76.60;;;;;;4925552;29;20034;-82
2023/05/05 07:46:47;;;;;;;3.78;2.17;;;14.20;76.60;;;;;;4935628;29;20031;-81
2023/05/05 07:49:13;;;;;;;3.45;2.35;;;14.20;76.50;;;;;;4936707;29;20039;-82
2023/05/05 07:51:38;;;;;;;3.63;2.35;;;14.20;76.60;;;;;;4938109;29;20038;-82
2023/05/05 07:54:04;;;;;;;4.05;2.20;;;14.20;77.10;;;;;;4951463;28;20066;-82
2023/05/05 07:56:30;;;;;;;3.22;2.13;;;14.30;76.60;;;;;;4949601;29;20035;-82
2023/05/05 07:58:55;;;;;;;2.95;2.05;;;14.20;76.50;;;;;;4937969;29;20042;-83
2023/05/05 08:01:21;;;;;;;3.20;2.17;;;14.20;76.50;;;;;;4937373;29;20039;-82
2023/05/05 08:03:46;;;;;;;3.70;2.30;;;14.20;76.40;;;;;;4936820;28;20027;-83
2023/05/05 08:06:20;;;;;;;4.13;2.50;;;14.20;76.40;;;;;;4952416;29;20035;-82
2023/05/05 08:08:47;;;;;;;3.45;2.15;;;14.20;76.40;;;;;;4930212;29;20533;-82
2023/05/05 08:11:14;;;;;;;3.35;2.10;;;14.20;76.40;;;;;;4936875;29;20027;-82
2023/05/05 08:13:41;;;;;;;4.45;2.25;;;14.30;76.50;;;;;;4953814;28;20027;-82
2023/05/05 08:16:07;;;;;;;3.50;2.28;;;14.30;76.50;;;;;;4951680;29;20035;-82
2023/05/05 08:18:36;;;;;;;3.78;2.20;;;14.30;76.50;;;;;;4954709;29;20046;-83
2023/05/05 08:21:02;;;;;;;3.22;2.13;;;14.30;76.50;;;;;;4937247;29;20028;-82
2023/05/05 08:23:27;;;;;;;4.03;2.40;;;14.30;76.40;;;;;;4936842;28;20027;-82
2023/05/05 08:25:53;;;;;;;3.00;2.00;;;14.30;76.30;;;;;;4936374;29;20027;-82
2023/05/05 08:28:18;;;;;;;4.32;2.50;;;14.30;76.20;;;;;;4926342;29;20027;-82
2023/05/05 08:30:44;;;;;;;3.42;2.22;;;14.30;76.40;;;;;;4918449;29;20028;-82
2023/05/05 08:33:09;;;;;;;3.38;2.17;;;14.30;76.30;;;;;;4917966;29;20059;-82
2023/05/05 08:35:35;;;;;;;3.45;2.10;;;14.30;76.30;;;;;;4930690;29;20058;-81
2023/05/05 08:38:00;;;;;;;3.15;2.13;;;14.30;76.30;;;;;;4953675;28;20414;-82
2023/05/05 08:40:32;;;;;;;4.07;2.28;;;14.30;76.30;;;;;;4936477;29;20091;-81
2023/05/05 08:42:58;;;;;;;4.10;2.42;;;14.30;76.30;;;;;;4951417;28;20034;-82
2023/05/05 08:45:24;;;;;;;3.58;2.30;;;14.30;76.30;;;;;;4936468;29;20035;-82
2023/05/05 08:47:49;;;;;;;4.30;2.40;;;14.40;76.30;;;;;;4953887;29;20338;-82
2023/05/05 08:50:17;;;;;;;3.60;2.20;;;14.40;76.10;;;;;;4918774;29;20034;-82
2023/05/05 08:52:52;;;;;;;3.75;2.22;;;14.40;76.10;;;;;;4917534;29;20031;-82
2023/05/05 08:55:26;;;;;;;3.60;2.20;;;14.40;76.10;;;;;;4925842;29;20112;-83
2023/05/05 08:58:00;;;;;;;3.17;2.22;;;14.40;76.00;;;;;;4918954;29;20028;-82
2023/05/05 09:00:26;;;;;;;3.70;2.30;;;14.40;76.10;;;;;;4935030;29;20024;-81
2023/05/05 09:02:55;;;;;;;3.53;2.28;;;14.40;76.00;;;;;;4934127;29;20038;-82
2023/05/05 09:05:20;;;;;;;3.78;2.38;;;14.40;75.90;;;;;;4931808;29;20034;-82
2023/05/05 09:07:46;;;;;;;4.00;2.35;;;14.40;75.90;;;;;;4939841;29;20028;-81
2023/05/05 09:10:12;;;;;;;3.97;2.40;;;14.50;75.80;;;;;;4916893;29;20755;-82
2023/05/05 09:12:40;;;;;;;3.78;2.25;;;14.50;75.90;;;;;;4918886;29;20054;-82
2023/05/05 09:15:11;;;;;;;3.53;2.20;;;14.50;75.80;;;;;;4927162;29;20106;-82
2023/05/05 09:17:37;;;;;;;4.18;2.42;;;14.50;75.80;;;;;;4934066;29;20036;-83
2023/05/05 09:20:06;;;;;;;4.07;2.45;;;14.50;75.80;;;;;;4934301;29;20039;-84
2023/05/05 09:22:43;;;;;;;3.92;2.47;;;14.50;75.80;;;;;;4934674;29;20028;-83
2023/05/05 09:25:13;;;;;;;3.60;2.30;;;14.60;75.80;;;;;;4943313;29;20039;-83
2023/05/05 09:27:41;;;;;;;3.53;2.38;;;14.60;75.90;;;;;;4935586;29;20032;-84
2023/05/05 09:30:11;;;;;;;3.55;2.25;;;14.60;75.80;;;;;;4929545;29;20039;-83
2023/05/05 09:32:42;;;;;;;3.78;2.10;;;14.60;75.70;;;;;;4953187;29;20023;-83
2023/05/05 09:35:08;;;;;;;;;;;14.60;75.40;;;;;;4950823;28;20034;-81
2023/05/05 09:37:33;;;;;;;3.65;2.30;;;14.60;75.60;;;;;;4935984;29;19906;-83
2023/05/05 09:40:02;;;;;;;3.30;2.10;;;14.60;75.40;;;;;;4937429;29;20023;-83
2023/05/05 09:42:28;;;;;;;4.63;2.30;;;14.80;75.40;;;;;;4937008;29;20027;-83
2023/05/05 09:44:54;;;;;;;3.75;2.30;;;14.70;75.30;;;;;;4951523;28;20860;-84
2023/05/05 09:47:19;;;;;;;4.03;2.28;;;14.70;75.20;;;;;;4926875;29;20027;-83
2023/05/05 09:49:56;;;;;;;3.72;2.40;;;14.80;75.30;;;;;;4937255;29;20019;-82
2023/05/05 09:52:22;;;;;;;4.32;2.45;;;14.80;75.20;;;;;;4936859;29;20031;-84
2023/05/05 09:54:53;;;;;;;3.92;2.38;;;14.80;75.30;;;;;;4933454;29;20043;-84
2023/05/05 09:57:32;;;;;;;3.45;2.17;;;14.80;75.20;;;;;;4935892;29;20039;-84
2023/05/05 09:59:59;;;;;;;3.63;2.40;;;14.80;75.20;;;;;;4935635;29;20076;-83
2023/05/05 10:02:33;;;;;;;5.07;2.25;;;14.90;75.10;;;;;;4934280;29;20020;-83
2023/05/05 10:05:09;;;;;;;4.55;2.35;;;14.80;75.10;;;;;;4933372;29;20027;-83
2023/05/05 10:07:36;;;;;;;3.45;2.22;;;14.90;75.10;;;;;;4939285;29;20029;-84
2023/05/05 10:10:06;;;;;;;3.45;2.20;;;14.90;75.00;;;;;;4955845;29;20034;-84
2023/05/05 10:12:34;;;;;;;3.30;2.20;;;14.90;74.90;;;;;;4955947;29;20535;-83
2023/05/05 10:15:02;;;;;;;4.45;2.50;;;15.00;75.50;;;;;;4925773;29;20036;-83
2023/05/05 10:17:31;;;;;;;3.33;2.35;;;15.00;75.00;;;;;;4951245;28;20032;-84
2023/05/05 10:19:59;;;;;;;3.67;2.30;;;15.00;75.00;;;;;;4941739;29;20039;-84
2023/05/05 10:22:27;;;;;;;3.50;2.20;;;15.00;74.90;;;;;;4941454;29;20497;-84
2023/05/05 10:25:08;;;;;;;3.75;2.25;;;15.10;75.00;;;;;;4952887;28;20046;-84
2023/05/05 10:27:42;;;;;;;3.45;2.30;;;15.00;74.90;;;;;;4934816;29;20383;-84
2023/05/05 10:30:19;;;;;;;3.92;2.38;;;15.00;74.90;;;;;;4941009;29;20088;-84
2023/05/05 10:32:57;;;;;;;3.55;2.20;;;15.00;74.90;;;;;;4941066;29;20027;-84
2023/05/05 10:35:25;;;;;;;3.55;2.20;;;15.00;75.00;;;;;;4948471;28;20040;-84
2023/05/05 10:37:51;;;;;;;4.10;2.30;;;15.00;74.90;;;;;;4938781;29;20030;-84
2023/05/05 10:40:20;;;;;;;3.42;2.20;;;15.10;75.00;;;;;;4921852;29;20031;-84
2023/05/05 10:42:48;;;;;;;3.40;2.30;;;15.10;75.00;;;;;;4938102;29;20060;-84
2023/05/05 10:45:14;;;;;;;3.58;2.38;;;15.10;75.00;;;;;;4934929;29;20570;-84
2023/05/05 10:47:39;;;;;;;3.90;2.22;;;15.10;74.90;;;;;;4934960;29;20035;-85
2023/05/05 10:50:31;;;;;;;4.10;2.47;;;15.10;74.90;;;;;;4936946;29;20119;-84
2023/05/05 10:53:34;;;;;;;4.40;2.50;;;15.10;74.80;;;;;;4939465;29;20028;-84
2023/05/05 10:56:12;;;;;;;3.85;2.40;;;15.20;74.90;;;;;;4900098;29;20039;-85
2023/05/05 10:58:40;;;;;;;4.65;2.35;;;15.20;74.80;;;;;;4957932;29;20036;-84
2023/05/05 11:01:06;;;;;;;3.15;2.10;;;15.20;74.80;;;;;;4961273;29;20027;-85
2023/05/05 11:03:32;;;;;;;3.75;2.35;;;15.20;74.70;;;;;;4941664;28;20499;-85
2023/05/05 11:06:06;;;;;;;2.97;2.13;;;15.20;74.70;;;;;;4929303;29;20372;-85
2023/05/05 11:08:37;;;;;;;3.72;2.15;;;15.20;74.70;;;;;;4938282;29;20452;-83
2023/05/05 11:11:03;;;;;;;3.65;2.40;;;15.30;74.70;;;;;;4941901;29;20028;-85
2023/05/05 11:13:30;;;;;;;4.07;2.55;;;15.30;74.70;;;;;;4922646;29;20070;-84
2023/05/05 11:15:57;;;;;;;3.85;2.47;;;15.30;74.60;;;;;;4926704;29;20396;-86
2023/05/05 11:18:30;;;;;;;4.38;2.45;;;15.30;74.60;;;;;;4939441;29;20027;-86
2023/05/05 11:20:58;;;;;;;3.17;2.15;;;15.30;74.60;;;;;;4941935;29;20031;-85
2023/05/05 11:23:24;;;;;;;3.67;2.20;;;15.20;74.50;;;;;;4941731;29;20031;-85
2023/05/05 11:25:56;;;;;;;3.50;2.28;;;15.30;74.60;;;;;;4935157;29;20118;-84
2023/05/05 11:28:24;;;;;;;3.13;2.10;;;15.30;74.60;;;;;;4940246;29;20788;-86
2023/05/05 11:30:57;;;;;;;3.58;2.20;;;15.30;74.60;;;;;;4955673;29;20042;-86
2023/05/05 11:33:34;;;;;;;3.97;2.10;;;15.30;74.60;;;;;;4954629;28;20372;-84
2023/05/05 11:36:05;;;;;;;3.45;2.17;;;15.30;74.60;;;;;;4933435;29;20035;-89
2023/05/05 11:38:49;;;;;;;3.35;2.03;;;15.30;74.60;;;;;;4937004;29;20046;-83
2023/05/05 11:41:29;;;;;;;2.85;2.08;;;15.30;74.60;;;;;;4953684;29;20110;-83
2023/05/05 11:44:13;;;;;;;3.83;2.25;;;15.30;74.60;;;;;;4952539;28;20030;-82
2023/05/05 11:46:49;;;;;;;3.75;2.22;;;15.30;74.70;;;;;;4931751;29;20070;-83
2023/05/05 11:49:29;;;;;;;3.10;2.00;;;15.30;74.60;;;;;;4920377;29;20480;-83
2023/05/05 11:52:07;;;;;;;3.45;2.17;;;15.40;74.70;;;;;;4925448;29;20642;-83
2023/05/05 11:54:35;;;;;;;3.45;2.25;;;15.30;74.60;;;;;;4948249;29;20040;-83
2023/05/05 11:57:04;;;;;;;3.97;2.00;;;15.30;74.60;;;;;;4936907;29;20451;-83
2023/05/05 11:59:35;;;;;;;4.97;2.30;;;15.30;74.70;;;;;;4930612;29;20032;-82
2023/05/05 12:02:02;;;;;;;3.75;2.00;;;15.40;74.70;;;;;;4941173;29;20050;-83
2023/05/05 12:04:29;;;;;;;3.38;2.10;;;15.30;74.70;;;;;;4928742;29;20058;-82
2023/05/05 12:06:55;;;;;;;3.30;2.05;;;15.30;74.70;;;;;;4936781;29;20063;-83
2023/05/05 12:09:22;;;;;;;4.30;2.15;;;15.30;74.70;;;;;;4947272;29;20035;-81
2023/05/05 12:11:55;;;;;;;3.25;1.98;;;15.30;74.70;;;;;;4922636;29;20043;-82
2023/05/05 12:14:21;;;;;;;2.92;1.90;;;15.30;74.70;;;;;;4924794;29;20881;-84
2023/05/05 12:17:13;;;;;;;3.33;2.08;;;15.30;74.80;;;;;;4932327;29;20050;-84
2023/05/05 12:19:53;;;;;;;2.88;1.90;;;15.30;74.80;;;;;;4951037;29;20482;-84
2023/05/05 12:22:21;;;;;;;3.28;1.90;;;15.30;74.80;;;;;;4940048;29;20070;-84
2023/05/05 12:24:57;;;;;;;2.90;1.98;;;15.30;74.80;;;;;;4935240;29;20036;-85
2023/05/05 12:27:25;;;;;;;3.45;2.05;;;15.30;74.90;;;;;;4936955;29;20020;-85
2023/05/05 12:29:53;;;;;;;2.83;1.90;;;15.30;75.00;;;;;;4937707;29;20487;-85
2023/05/05 12:32:28;;;;;;;3.33;2.05;;;15.30;75.10;;;;;;4938476;29;20103;-83
2023/05/05 12:34:56;;;;;;;3.00;2.00;;;15.30;75.20;;;;;;4944918;29;20505;-84
2023/05/05 12:37:23;;;;;;;3.08;1.90;;;15.20;75.10;;;;;;4936824;29;20130;-84
2023/05/05 12:39:49;;;;;;;4.00;2.00;;;15.20;75.10;;;;;;4917193;29;20645;-83
2023/05/05 12:42:15;;;;;;;3.35;2.10;;;15.20;75.20;;;;;;4924957;29;20033;-82
2023/05/05 12:44:43;;;;;;;3.75;2.30;;;15.20;75.30;;;;;;4937951;29;20034;-83
2023/05/05 12:47:10;;;;;;;2.88;1.88;;;15.20;75.30;;;;;;4929999;29;20051;-82
2023/05/05 12:49:45;;;;;;;3.08;2.00;;;15.20;75.40;;;;;;4919696;29;20119;-82
2023/05/05 12:52:11;;;;;;;2.67;1.90;;;15.20;75.40;;;;;;4918820;29;20038;-82
2023/05/05 12:54:50;;;;;;;3.30;2.03;;;15.20;75.40;;;;;;4925477;29;20415;-82
2023/05/05 12:57:16;;;;;;;4.00;2.08;;;15.20;75.50;;;;;;4938345;29;20035;-82
2023/05/05 12:59:42;;;;;;;3.22;1.90;;;15.10;75.50;;;;;;4938700;28;20027;-82
2023/05/05 13:02:07;;;;;;;2.33;1.70;;;15.10;75.60;;;;;;4938067;29;20037;-82
2023/05/05 13:04:33;;;;;;;3.38;2.00;;;15.20;75.70;;;;;;4933847;29;20062;-83
2023/05/05 13:07:10;;;;;;;3.15;1.90;;;15.10;75.70;;;;;;4937140;29;20384;-82
2023/05/05 13:09:36;;;;;;;2.53;1.77;;;15.10;75.70;;;;;;4937244;29;20031;-82